createdAt,value
2017-07-15T00:02:12.238Z,15.50
2017-07-15T00:07:14.905Z,15.50
2017-07-15T00:12:16.607Z,15.40
2017-07-15T00:17:18.858Z,15.30
2017-07-15T00:22:20.566Z,15.40
2017-07-15T00:27:22.238Z,15.30
2017-07-15T00:32:23.885Z,15.20
2017-07-15T00:37:26.586Z,15.20
2017-07-15T00:42:29.770Z,15.20
2017-07-15T00:47:31.428Z,15.20
2017-07-15T00:52:34.343Z,15.20
2017-07-15T00:57:37.086Z,15.10
2017-07-15T01:02:38.728Z,15.10
2017-07-15T01:07:40.432Z,14.90
2017-07-15T01:12:42.111Z,14.90
2017-07-15T01:17:44.404Z,14.80
2017-07-15T01:22:46.165Z,14.70
2017-07-15T01:27:48.862Z,14.50
2017-07-15T01:32:50.534Z,14.40
2017-07-15T01:37:52.852Z,14.40
2017-07-15T01:42:54.700Z,14.20
2017-07-15T01:47:57.391Z,14.10
2017-07-15T01:53:00.295Z,14.00
2017-07-15T01:58:01.936Z,13.90
2017-07-15T02:03:03.638Z,14.00
2017-07-15T02:08:06.422Z,14.10
2017-07-15T02:13:08.214Z,14.00
2017-07-15T02:18:09.886Z,14.00
2017-07-15T02:23:11.636Z,13.80
2017-07-15T02:28:13.335Z,13.70
2017-07-15T02:33:15.827Z,13.70
2017-07-15T02:38:18.521Z,13.50
2017-07-15T02:43:35.088Z,13.40
2017-07-15T02:48:51.694Z,13.30
2017-07-15T02:54:08.710Z,13.10
2017-07-15T02:59:25.302Z,13.20
2017-07-15T03:04:27.023Z,13.40
2017-07-15T03:09:43.636Z,13.30
2017-07-15T03:14:45.365Z,13.20
2017-07-15T03:20:01.964Z,13.10
2017-07-15T03:25:04.510Z,13.10
2017-07-15T03:30:06.152Z,12.90
2017-07-15T03:35:07.855Z,12.70
2017-07-15T03:40:10.551Z,12.70
2017-07-15T03:45:12.223Z,12.80
2017-07-15T03:50:13.896Z,12.60
2017-07-15T03:55:15.541Z,12.70
2017-07-15T04:00:18.492Z,12.60
2017-07-15T04:05:20.451Z,12.50
2017-07-15T04:10:22.122Z,12.30
2017-07-15T04:15:24.309Z,12.30
2017-07-15T04:20:26.916Z,13.00
2017-07-15T04:25:28.653Z,13.40
2017-07-15T04:30:30.320Z,13.70
2017-07-15T04:35:32.023Z,14.10
2017-07-15T04:40:33.669Z,14.30
2017-07-15T04:45:35.369Z,14.50
2017-07-15T04:50:37.012Z,14.20
2017-07-15T04:55:38.919Z,14.00
2017-07-15T05:00:40.599Z,14.50
2017-07-15T05:05:42.264Z,14.40
2017-07-15T05:10:43.935Z,14.40
2017-07-15T05:15:46.223Z,14.90
2017-07-15T05:20:47.829Z,14.60
2017-07-15T05:25:49.500Z,15.20
2017-07-15T05:30:51.222Z,15.90
2017-07-15T05:35:52.918Z,16.20
2017-07-15T05:40:54.585Z,16.70
2017-07-15T05:45:56.257Z,16.40
2017-07-15T05:50:58.137Z,16.20
2017-07-15T05:55:59.809Z,17.00
2017-07-15T06:01:01.481Z,17.10
2017-07-15T06:06:03.678Z,17.10
2017-07-15T06:11:05.441Z,16.80
2017-07-15T06:16:07.581Z,17.10
2017-07-15T06:21:09.402Z,16.80
2017-07-15T06:26:11.074Z,17.30
2017-07-15T06:31:13.669Z,17.80
2017-07-15T06:36:15.420Z,17.90
2017-07-15T06:41:17.116Z,17.50
2017-07-15T06:46:20.280Z,16.90
2017-07-15T06:51:22.100Z,17.10
2017-07-15T06:56:23.977Z,17.90
2017-07-15T07:01:25.649Z,17.10
2017-07-15T07:06:27.527Z,17.40
2017-07-15T07:11:30.140Z,17.50
2017-07-15T07:16:31.896Z,18.20
2017-07-15T07:21:33.569Z,19.00
2017-07-15T07:26:35.243Z,19.30
2017-07-15T07:31:36.914Z,18.40
2017-07-15T07:36:38.586Z,18.00
2017-07-15T07:41:40.868Z,18.30
2017-07-15T07:46:42.545Z,17.90
2017-07-15T07:51:45.420Z,17.70
2017-07-15T07:56:47.632Z,17.10
2017-07-15T08:01:49.277Z,17.00
2017-07-15T08:06:52.309Z,17.50
2017-07-15T08:11:53.980Z,17.50
2017-07-15T08:16:55.624Z,17.50
2017-07-15T08:21:57.331Z,18.00
2017-07-15T08:26:58.998Z,19.20
2017-07-15T08:32:00.670Z,19.80
2017-07-15T08:37:03.366Z,20.10
2017-07-15T08:42:05.039Z,19.10
2017-07-15T08:47:06.712Z,18.90
2017-07-15T08:52:08.491Z,18.60
2017-07-15T08:57:10.470Z,18.30
2017-07-15T09:02:12.112Z,17.90
2017-07-15T09:07:13.808Z,18.20
2017-07-15T09:12:15.459Z,18.90
2017-07-15T09:17:17.154Z,19.10
2017-07-15T09:22:20.540Z,19.90
2017-07-15T09:27:22.243Z,19.50
2017-07-15T09:32:23.913Z,18.80
2017-07-15T09:37:27.104Z,18.70
2017-07-15T09:42:30.537Z,20.50
2017-07-15T09:47:33.203Z,20.50
2017-07-15T09:52:34.952Z,20.50
2017-07-15T09:57:37.808Z,19.50
2017-07-15T10:02:40.681Z,19.30
2017-07-15T10:07:42.386Z,19.50
2017-07-15T10:12:44.543Z,19.80
2017-07-15T10:18:07.497Z,20.10
2017-07-15T10:23:09.313Z,20.00
2017-07-15T10:28:10.986Z,19.40
2017-07-15T10:33:13.682Z,19.30
2017-07-15T10:38:15.533Z,19.30
2017-07-15T10:43:17.233Z,19.60
2017-07-15T10:48:20.429Z,19.90
2017-07-15T10:53:22.419Z,19.90
2017-07-15T10:58:24.094Z,20.50
2017-07-15T11:03:25.766Z,20.80
2017-07-15T11:08:29.353Z,20.80
2017-07-15T11:13:31.775Z,19.90
2017-07-15T11:18:33.446Z,19.90
2017-07-15T11:23:35.094Z,20.00
2017-07-15T11:28:36.793Z,19.90
2017-07-15T11:33:38.402Z,19.90
2017-07-15T11:38:40.139Z,20.30
2017-07-15T11:43:41.812Z,20.20
2017-07-15T11:48:43.482Z,19.90
2017-07-15T11:53:46.152Z,20.40
2017-07-15T11:58:47.853Z,20.10
2017-07-15T12:03:49.705Z,20.50
2017-07-15T12:08:51.907Z,20.80
2017-07-15T12:13:53.690Z,20.60
2017-07-15T12:18:55.363Z,20.60
2017-07-15T12:23:58.343Z,20.50
2017-07-15T12:29:00.729Z,21.10
2017-07-15T12:34:03.428Z,21.10
2017-07-15T12:39:05.947Z,20.70
2017-07-15T12:44:07.616Z,20.90
2017-07-15T12:49:09.269Z,21.30
2017-07-15T12:54:10.936Z,21.30
2017-07-15T12:59:12.638Z,21.20
2017-07-15T13:04:14.310Z,21.70
2017-07-15T13:09:17.007Z,22.40
2017-07-15T13:14:19.601Z,22.60
2017-07-15T13:19:22.195Z,22.00
2017-07-15T13:24:23.845Z,22.60
2017-07-15T13:29:25.541Z,22.50
2017-07-15T13:34:28.033Z,22.20
2017-07-15T13:39:29.706Z,22.20
2017-07-15T13:44:31.582Z,22.20
2017-07-15T13:49:33.188Z,22.20
2017-07-15T13:54:34.899Z,22.10
2017-07-15T13:59:36.600Z,22.00
2017-07-15T14:04:38.273Z,21.60
2017-07-15T14:09:40.129Z,21.60
2017-07-15T14:14:42.953Z,21.80
2017-07-15T14:19:44.623Z,21.80
2017-07-15T14:24:46.245Z,21.70
2017-07-15T14:29:47.924Z,21.70
2017-07-15T14:34:49.581Z,21.50
2017-07-15T14:39:51.261Z,21.30
2017-07-15T14:44:52.938Z,21.20
2017-07-15T14:49:54.593Z,21.40
2017-07-15T14:54:56.274Z,21.50
2017-07-15T14:59:57.948Z,21.40
2017-07-15T15:04:59.614Z,21.30
2017-07-15T15:10:01.317Z,21.40
2017-07-15T15:15:02.925Z,21.40
2017-07-15T15:20:04.645Z,21.60
2017-07-15T15:25:06.368Z,21.70
2017-07-15T15:30:08.040Z,22.10
2017-07-15T15:35:09.712Z,22.00
2017-07-15T15:40:11.387Z,21.90
2017-07-15T15:45:13.028Z,21.80
2017-07-15T15:50:15.347Z,21.80
2017-07-15T15:55:17.020Z,22.10
2017-07-15T16:00:18.661Z,21.80
2017-07-15T16:05:20.338Z,21.50
2017-07-15T16:10:22.010Z,21.40
2017-07-15T16:15:23.710Z,21.50
2017-07-15T16:20:26.202Z,21.40
2017-07-15T16:25:27.876Z,21.40
2017-07-15T16:30:29.547Z,21.60
2017-07-15T16:35:31.221Z,21.70
2017-07-15T16:40:32.869Z,21.70
2017-07-15T16:45:35.183Z,21.70
2017-07-15T16:50:36.853Z,21.80
2017-07-15T16:55:38.524Z,21.60
2017-07-15T17:00:40.202Z,21.60
2017-07-15T17:05:41.871Z,21.60
2017-07-15T17:10:43.543Z,21.50
2017-07-15T17:15:45.841Z,21.70
2017-07-15T17:20:47.433Z,21.60
2017-07-15T17:25:49.176Z,21.30
2017-07-15T17:30:51.973Z,21.50
2017-07-15T17:35:54.437Z,21.60
2017-07-15T17:41:11.703Z,21.50
2017-07-15T17:46:13.377Z,21.40
2017-07-15T17:51:15.047Z,21.30
2017-07-15T17:56:18.300Z,21.40
2017-07-15T18:01:21.198Z,21.30
2017-07-15T18:06:23.753Z,21.40
2017-07-15T18:11:25.630Z,21.50
2017-07-15T18:16:29.072Z,21.30
2017-07-15T18:21:31.209Z,21.30
2017-07-15T18:26:33.436Z,21.00
2017-07-15T18:31:35.476Z,21.20
2017-07-15T18:36:37.644Z,21.10
2017-07-15T18:41:41.913Z,20.70
2017-07-15T18:46:44.699Z,20.60
2017-07-15T18:51:48.005Z,20.80
2017-07-15T18:56:50.002Z,20.80
2017-07-15T19:01:53.595Z,20.80
2017-07-15T19:06:56.012Z,20.90
2017-07-15T19:11:58.715Z,20.90
2017-07-15T19:17:01.110Z,20.80
2017-07-15T19:22:03.078Z,20.80
2017-07-15T19:27:06.109Z,20.40
2017-07-15T19:32:07.854Z,20.10
2017-07-15T19:37:11.284Z,19.90
2017-07-15T19:42:13.666Z,19.70
2017-07-15T19:47:15.888Z,19.50
2017-07-15T19:52:17.619Z,19.30
2017-07-15T19:57:19.401Z,19.30
2017-07-15T20:02:21.065Z,19.20
2017-07-15T20:07:22.658Z,18.90
2017-07-15T20:12:24.333Z,18.60
2017-07-15T20:17:26.073Z,18.40
2017-07-15T20:22:27.691Z,18.20
2017-07-15T20:27:29.382Z,18.10
2017-07-15T20:32:30.953Z,17.80
2017-07-15T20:37:32.625Z,17.70
2017-07-15T20:42:34.295Z,17.70
2017-07-15T20:47:36.065Z,17.60
2017-07-15T20:52:43.800Z,17.50
2017-07-15T20:57:45.441Z,17.40
2017-07-15T21:02:47.144Z,17.30
2017-07-15T21:07:48.851Z,17.20
2017-07-15T21:12:50.522Z,17.00
2017-07-15T21:17:52.195Z,17.00
2017-07-15T21:22:53.865Z,16.90
2017-07-15T21:27:55.517Z,16.80
2017-07-15T21:32:57.153Z,16.80
2017-07-15T21:37:58.826Z,16.70
2017-07-15T21:43:00.497Z,16.60
2017-07-15T21:48:02.184Z,16.50
2017-07-15T21:53:03.864Z,16.60
2017-07-15T21:58:05.546Z,16.60
2017-07-15T22:03:07.249Z,16.40
2017-07-15T22:08:08.923Z,16.40
2017-07-15T22:13:10.593Z,16.30
2017-07-15T22:18:13.087Z,16.30
2017-07-15T23:47:46.341Z,16.30
2017-07-15T23:52:48.037Z,15.80
2017-07-15T23:57:50.530Z,15.80
